メインページ
METAR-TAF:

METAR-TAF

空港 :

熊本空港

熊本, 日本

緯度: 32-50N, 経度: 130-51E, 海抜: 193m

現時点の気象観測

当レポートは34分前の11:21(UTC)に作成
の風 18kt、最大28ktの突風を伴う
気温 19°C
湿度 52%
気圧 1015 hPa
視程10km以上
高度4000ftの雲はほとんどない
高度12000ftの千切れ雲あり
小雨

METAR: RJFT 201121Z 09018G28KT 9999 -RA FEW040 BKN120 19/09 Q1015 RMK 1CU040 7AC120 A2997

時間: 20:55 (11:55 UTC)

予報

当レポートは43分前の11:12(UTC)に作成
予報は20日の 12時(UTC)から 21日の 18時(UTC)まで有効
東/北東の風 13kt
視程10km以上
高度4000ftの雲はほとんどない
高度6000ftの千切れ雲あり
小雨
20日の 12時(UTC)から 20日の 15時(UTC)まで一時的に
の風 15kt、最大25ktの突風を伴う
21日の 00時(UTC)から 21日の 09時(UTC)まで一時的に
の風 16kt、最大26ktの突風を伴う

TAF: RJFT 201112Z 2012/2118 07013KT 9999 -RA FEW040 BKN060 TEMPO 2012/2015 09015G25KT TEMPO 2100/2109 09016G26KT

4,000以上の空港の気象観測と天気予報(METAR報とTAF報)

利用可能な観測所は地図上に黄色い丸と赤い丸で示す。

丸の上にカーソルを重ねると観測所名を参照できる。

次にクリックすると気象観測と天気予報を参照できる。

マップの切り替え:黒色「×」印の緑ボタンをクリックして拡大、「-」印の緑ボタンをクリックして縮小、緑色の三角印をクリックして隣りの地図に切り替え


METAR-TAF: